This is the latest recevied weather packets stored in our database for station/object EFOU. If no packets are shown the sender has not sent any weather packets the latest 10 day(s).
| Time | Temp. | Humidity | Pressure | Rain* | Wind** | Luminosity | Snow |
|---|---|---|---|---|---|---|---|
| 1778185645 | 1.67° C | 79% | 1018.1 hPa | - | - | - | - |
| 1778184445 | 2.22° C | 79% | 1017.9 hPa | - | - | - | - |
| 1778183245 | 2.78° C | 79% | 1017.8 hPa | - | - | - | - |
| 1778182045 | 3.89° C | 75% | 1017.6 hPa | - | - | - | - |
| 1778180844 | 4.44° C | 72% | 1017.5 hPa | - | - | - | - |
| 1778179645 | 5° C | 69% | 1017.4 hPa | - | - | - | - |
| 1778178445 | 5° C | 69% | 1017.3 hPa | - | - | - | - |
| 1778177244 | 5.56° C | 69% | 1017.1 hPa | - | - | - | - |
| 1778176044 | 6.11° C | 68% | 1017 hPa | - | - | - | - |
| 1778174844 | 6.11° C | 69% | 1016.9 hPa | - | - | - | - |
| 1778173644 | 5.56° C | 73% | 1016.7 hPa | - | - | - | - |
| 1778172444 | 6.67° C | 50% | 1016.5 hPa | - | - | - | - |
| 1778171244 | 6.67° C | 51% | 1016.5 hPa | - | - | - | - |
| 1778170044 | 6.67° C | 54% | 1016.4 hPa | - | - | - | - |
| 1778168844 | 7.22° C | 52% | 1016.4 hPa | - | - | - | - |
| 1778167643 | 7.22° C | 47% | 1016.5 hPa | - | - | - | - |
| 1778166444 | 7.22° C | 60% | 1016.5 hPa | - | - | - | - |
| 1778165244 | 7.22° C | 57% | 1016.5 hPa | - | - | - | - |
| 1778164044 | 7.22° C | 59% | 1016.5 hPa | - | - | - | - |
| 1778162843 | 7.22° C | 60% | 1016.5 hPa | - | - | - | - |
| 1778161644 | 6.67° C | 64% | 1016.4 hPa | - | - | - | - |
| 1778160443 | 6.67° C | 63% | 1016.2 hPa | - | - | - | - |
| 1778158043 | 7.22° C | 63% | 1016 hPa | - | - | - | - |
| 1778156843 | 7.78° C | 57% | 1015.7 hPa | - | - | - | - |
| 1778155643 | 7.78° C | 59% | 1015.7 hPa | - | - | - | - |
* Rain since midnight (hover to see other rain measurements)
** Current wind speed in m/s (hover to see current wind gust speed)